createdAt,value
2022-10-03T00:03:57.143Z,100780.72
2022-10-03T00:09:33.003Z,100776.28
2022-10-03T00:14:49.378Z,100784.63
2022-10-03T00:20:12.477Z,100803.94
2022-10-03T00:25:39.518Z,100801.06
2022-10-03T00:31:10.349Z,100804.53
2022-10-03T00:36:29.539Z,100804.00
2022-10-03T00:42:21.776Z,100811.03
2022-10-03T00:48:22.783Z,100812.69
2022-10-03T00:53:48.171Z,100806.75
2022-10-03T00:59:23.258Z,100811.28
2022-10-03T01:05:02.501Z,100820.81
2022-10-03T01:10:22.943Z,100821.88
2022-10-03T01:15:59.664Z,100821.16
2022-10-03T01:21:37.591Z,100823.53
2022-10-03T01:26:59.807Z,100826.44
2022-10-03T01:32:35.756Z,100822.25
2022-10-03T01:38:01.279Z,100830.44
2022-10-03T01:43:29.560Z,100833.19
2022-10-03T01:48:52.862Z,100835.91
2022-10-03T01:54:13.124Z,100840.59
2022-10-03T01:59:54.387Z,100847.13
2022-10-03T02:05:20.838Z,100843.06
2022-10-03T02:10:43.091Z,100849.16
2022-10-03T02:16:03.943Z,100847.25
2022-10-03T02:21:31.026Z,100858.53
2022-10-03T02:27:23.307Z,100863.06
2022-10-03T02:33:29.584Z,100868.41
2022-10-03T02:39:20.456Z,100873.25
2022-10-03T02:45:19.812Z,100875.06
2022-10-03T02:51:17.394Z,100875.41
2022-10-03T02:56:55.588Z,100872.78
2022-10-03T03:02:39.237Z,100880.63
2022-10-03T03:08:26.637Z,100890.16
2022-10-03T03:20:22.165Z,100898.56
2022-10-03T03:25:53.454Z,100899.16
2022-10-03T03:31:17.162Z,100902.25
2022-10-03T03:36:41.326Z,100899.38
2022-10-03T03:42:30.922Z,100899.97
2022-10-03T03:48:18.589Z,100899.97
2022-10-03T03:54:07.717Z,100915.69
2022-10-03T03:59:38.308Z,100914.91
2022-10-03T04:05:10.102Z,100905.84
2022-10-03T04:10:26.761Z,100920.06
2022-10-03T04:16:01.788Z,100919.44
2022-10-03T04:21:42.654Z,100931.34
2022-10-03T04:27:17.585Z,100930.03
2022-10-03T04:32:53.859Z,100930.03
2022-10-03T04:38:26.661Z,100928.63
2022-10-03T04:43:44.196Z,100925.75
2022-10-03T04:49:00.926Z,100927.66
2022-10-03T04:54:18.505Z,100930.03
2022-10-03T04:59:47.355Z,100930.28
2022-10-03T05:05:24.847Z,100934.56
2022-10-03T05:10:55.190Z,100931.09
2022-10-03T05:16:19.287Z,100942.19
2022-10-03T05:21:45.422Z,100955.66
2022-10-03T05:27:17.216Z,100951.00
2022-10-03T05:32:38.067Z,100953.97
2022-10-03T05:38:06.870Z,100955.41
2022-10-03T05:43:37.087Z,100957.66
2022-10-03T05:48:57.589Z,100965.88
2022-10-03T05:55:06.771Z,100967.75
2022-10-03T06:00:51.839Z,100977.41
2022-10-03T06:06:28.313Z,100986.94
2022-10-03T06:12:23.321Z,100994.19
2022-10-03T06:24:18.175Z,101005.69
2022-10-03T06:30:07.582Z,100998.16
2022-10-03T06:35:52.843Z,101010.28
2022-10-03T06:41:52.398Z,101014.41
2022-10-03T06:47:35.760Z,101022.34
2022-10-03T06:53:27.850Z,101029.06
2022-10-03T06:59:07.515Z,101022.81
2022-10-03T07:05:04.895Z,101035.03
2022-10-03T07:10:33.463Z,101030.94
2022-10-03T07:16:26.946Z,101043.78
2022-10-03T07:22:13.069Z,101042.53
2022-10-03T07:27:50.937Z,101038.09
2022-10-03T07:33:43.057Z,101051.16
2022-10-03T07:39:29.511Z,101059.38
2022-10-03T07:45:13.200Z,101062.44
2022-10-03T07:51:06.123Z,101073.97
2022-10-03T07:56:36.782Z,101075.44
2022-10-03T08:02:00.049Z,101072.97
2022-10-03T08:07:34.297Z,101085.88
2022-10-03T08:13:14.074Z,101092.25
2022-10-03T08:19:04.470Z,101086.00
2022-10-03T08:24:43.378Z,101092.97
2022-10-03T08:30:18.678Z,101090.78
2022-10-03T08:36:08.200Z,101099.09
2022-10-03T08:41:58.604Z,101090.03
2022-10-03T08:47:23.317Z,101102.69
2022-10-03T08:52:46.070Z,101095.00
2022-10-03T08:58:28.139Z,101095.19
2022-10-03T09:09:52.562Z,101099.19
2022-10-03T09:15:39.336Z,101109.56
2022-10-03T09:21:13.095Z,101109.09
2022-10-03T09:27:16.374Z,101111.97
2022-10-03T09:32:59.966Z,101108.91
2022-10-03T09:44:38.424Z,101109.81
2022-10-03T09:50:23.594Z,101112.41
2022-10-03T09:56:00.676Z,101122.94
2022-10-03T10:01:32.330Z,101124.28
2022-10-03T10:07:34.356Z,101124.66
2022-10-03T10:13:17.501Z,101120.72
2022-10-03T10:19:18.551Z,101104.84
2022-10-03T10:25:08.003Z,101098.94
2022-10-03T10:30:37.061Z,101106.09
2022-10-03T10:36:14.361Z,101105.13
2022-10-03T10:42:12.206Z,101104.19
2022-10-03T10:48:05.001Z,101097.16
2022-10-03T10:53:50.582Z,101097.78
2022-10-03T10:59:58.578Z,101096.25
2022-10-03T11:05:40.831Z,101091.81
2022-10-03T11:11:29.621Z,101097.31
2022-10-03T11:17:17.494Z,101095.34
2022-10-03T11:23:12.406Z,101093.16
2022-10-03T11:28:55.778Z,101105.16
2022-10-03T11:34:49.680Z,101092.75
2022-10-03T11:40:21.039Z,101091.28
2022-10-03T11:45:38.613Z,101095.91
2022-10-03T11:56:41.039Z,101101.28
2022-10-03T12:02:02.501Z,101105.06
2022-10-03T12:08:09.762Z,101094.31
2022-10-03T12:13:24.909Z,101087.22
2022-10-03T12:19:07.826Z,101095.53
2022-10-03T12:24:35.500Z,101091.41
2022-10-03T12:29:58.174Z,101082.34
2022-10-03T12:35:21.320Z,101091.63
2022-10-03T12:40:37.776Z,101088.47
2022-10-03T12:51:37.196Z,101077.50
2022-10-03T12:57:32.596Z,101070.88
2022-10-03T13:02:52.080Z,101082.34
2022-10-03T13:08:13.973Z,101079.69
2022-10-03T13:13:36.928Z,101065.13
2022-10-03T13:24:35.877Z,101064.28
2022-10-03T13:29:53.877Z,101059.81
2022-10-03T13:35:45.780Z,101057.97
2022-10-03T13:41:00.427Z,101064.25
2022-10-03T13:46:46.582Z,101072.47
2022-10-03T13:52:21.451Z,101067.13
2022-10-03T13:57:34.221Z,101077.84
2022-10-03T14:03:00.108Z,101085.16
2022-10-03T14:08:20.619Z,101077.94
2022-10-03T14:13:41.332Z,101076.34
2022-10-03T14:19:02.369Z,101073.03
2022-10-03T14:24:55.043Z,101064.66
2022-10-03T14:30:20.401Z,101070.19
2022-10-03T14:35:41.517Z,101062.31
2022-10-03T14:41:11.088Z,101055.63
2022-10-03T14:46:35.154Z,101046.53
2022-10-03T14:52:05.102Z,101048.41
2022-10-03T14:57:53.138Z,101057.34
2022-10-03T15:08:50.855Z,101057.56
2022-10-03T15:14:23.269Z,101056.72
2022-10-03T15:19:36.738Z,101059.00
2022-10-03T15:24:59.355Z,101051.50
2022-10-03T15:30:13.782Z,101039.94
2022-10-03T15:35:42.908Z,101042.09
2022-10-03T15:41:10.047Z,101045.19
2022-10-03T15:46:39.390Z,101049.75
2022-10-03T15:51:50.951Z,101043.41
2022-10-03T15:57:03.380Z,101044.38
2022-10-03T16:02:20.810Z,101046.53
2022-10-03T16:07:39.490Z,101045.63
2022-10-03T16:13:02.470Z,101041.75
2022-10-03T16:18:52.464Z,101048.03
2022-10-03T16:24:05.594Z,101050.56
2022-10-03T16:29:18.567Z,101052.84
2022-10-03T16:34:34.338Z,101057.56
2022-10-03T16:45:25.035Z,101069.84
2022-10-03T16:50:50.628Z,101079.38
2022-10-03T16:56:00.453Z,101076.47
2022-10-03T17:01:27.754Z,101069.03
2022-10-03T17:06:55.803Z,101059.75
2022-10-03T17:12:03.991Z,101066.44
2022-10-03T17:17:24.962Z,101057.28
2022-10-03T17:22:48.990Z,101052.00
2022-10-03T17:28:01.094Z,101059.66
2022-10-03T17:33:29.142Z,101053.16
2022-10-03T17:38:50.040Z,101059.84
2022-10-03T17:44:10.031Z,101066.41
2022-10-03T17:49:29.671Z,101067.09
2022-10-03T17:54:47.087Z,101047.09
2022-10-03T18:00:03.825Z,101051.03
2022-10-03T18:05:16.401Z,101057.00
2022-10-03T18:10:34.111Z,101069.63
2022-10-03T18:16:15.126Z,101057.16
2022-10-03T18:21:46.456Z,101058.00
2022-10-03T18:27:21.307Z,101073.28
2022-10-03T18:32:35.038Z,101064.81
2022-10-03T18:38:08.505Z,101052.75
2022-10-03T18:43:57.553Z,101062.75
2022-10-03T18:49:32.999Z,101063.03
2022-10-03T18:54:51.472Z,101071.91
2022-10-03T19:00:08.152Z,101066.78
2022-10-03T19:05:25.342Z,101064.13
2022-10-03T19:11:03.392Z,101061.38
2022-10-03T19:16:54.957Z,101063.31
2022-10-03T19:22:32.581Z,101065.41
2022-10-03T19:27:55.568Z,101070.09
2022-10-03T19:33:24.181Z,101072.91
2022-10-03T19:38:50.720Z,101079.66
2022-10-03T19:44:08.627Z,101077.03
2022-10-03T19:49:35.471Z,101069.28
2022-10-03T19:54:56.137Z,101071.34
2022-10-03T20:00:03.495Z,101063.06
2022-10-03T20:05:30.809Z,101061.38
2022-10-03T20:11:05.473Z,101067.59
2022-10-03T20:16:19.482Z,101075.09
2022-10-03T20:21:36.078Z,101061.13
2022-10-03T20:26:53.445Z,101057.78
2022-10-03T20:32:06.645Z,101055.28
2022-10-03T20:37:36.760Z,101060.53
2022-10-03T20:42:49.826Z,101053.75
2022-10-03T20:48:27.403Z,101059.00
2022-10-03T20:53:48.353Z,101054.72
2022-10-03T20:58:58.681Z,101058.19
2022-10-03T21:04:33.293Z,101060.81
2022-10-03T21:09:47.659Z,101057.63
2022-10-03T21:15:29.044Z,101053.34
2022-10-03T21:20:50.028Z,101042.34
2022-10-03T21:26:01.471Z,101051.94
2022-10-03T21:31:36.642Z,101046.78
2022-10-03T21:37:06.372Z,101050.53
2022-10-03T21:42:31.237Z,101050.53
2022-10-03T21:48:04.003Z,101054.16
2022-10-03T21:53:30.251Z,101045.53
2022-10-03T21:59:05.608Z,101037.63
2022-10-03T22:04:27.620Z,101044.16
2022-10-03T22:09:40.489Z,101040.00
2022-10-03T22:15:17.499Z,101036.53
2022-10-03T22:20:34.478Z,101031.13
2022-10-03T22:26:29.615Z,101037.22
2022-10-03T22:31:44.222Z,101033.19
2022-10-03T22:37:44.790Z,101029.88
2022-10-03T22:43:11.130Z,101033.88
2022-10-03T22:48:21.591Z,101032.50
2022-10-03T22:53:34.968Z,101023.63
2022-10-03T22:58:51.757Z,101023.19
2022-10-03T23:04:13.580Z,101025.78
2022-10-03T23:09:28.416Z,101029.94
2022-10-03T23:14:44.216Z,101026.75
2022-10-03T23:20:08.327Z,101025.78
2022-10-03T23:25:23.924Z,101020.78
2022-10-03T23:30:57.634Z,101021.38
2022-10-03T23:36:23.434Z,101026.22
2022-10-03T23:42:01.863Z,101031.47
2022-10-03T23:47:16.102Z,101033.53
2022-10-03T23:52:27.483Z,101035.59
2022-10-03T23:57:41.150Z,101039.31
